createdAt,value
2018-07-02T00:00:32.010Z,52.57
2018-07-02T00:01:31.959Z,52.57
2018-07-02T00:02:31.911Z,53.05
2018-07-02T00:03:31.864Z,54.01
2018-07-02T00:04:31.807Z,54.30
2018-07-02T00:05:31.759Z,53.53
2018-07-02T00:06:31.707Z,54.39
2018-07-02T00:07:31.658Z,54.68
2018-07-02T00:08:31.621Z,53.34
2018-07-02T00:09:31.557Z,52.67
2018-07-02T00:10:31.509Z,52.67
2018-07-02T00:11:31.455Z,52.00
2018-07-02T00:12:31.404Z,51.51
2018-07-02T00:13:31.355Z,51.42
2018-07-02T00:14:31.307Z,51.45
2018-07-02T00:15:31.254Z,52.89
2018-07-02T00:16:31.204Z,53.36
2018-07-02T00:17:31.152Z,52.86
2018-07-02T00:18:31.100Z,52.57
2018-07-02T00:19:31.051Z,52.38
2018-07-02T00:20:31.002Z,52.31
2018-07-02T00:21:30.951Z,52.09
2018-07-02T00:22:30.898Z,52.02
2018-07-02T00:23:30.847Z,52.57
2018-07-02T00:24:30.798Z,52.38
2018-07-02T00:25:30.751Z,52.86
2018-07-02T00:26:30.697Z,52.95
2018-07-02T00:27:30.649Z,53.05
2018-07-02T00:28:30.597Z,52.86
2018-07-02T00:29:30.548Z,52.95
2018-07-02T00:30:30.495Z,53.44
2018-07-02T00:31:30.444Z,54.01
2018-07-02T00:32:30.397Z,54.49
2018-07-02T00:33:30.343Z,55.45
2018-07-02T00:34:30.292Z,54.49
2018-07-02T00:35:30.243Z,53.44
2018-07-02T00:36:30.192Z,53.34
2018-07-02T00:37:30.142Z,52.86
2018-07-02T00:38:30.091Z,53.15
2018-07-02T00:39:30.042Z,53.24
2018-07-02T00:40:29.990Z,53.05
2018-07-02T00:41:29.938Z,52.57
2018-07-02T00:42:29.893Z,52.38
2018-07-02T00:43:29.840Z,53.05
2018-07-02T00:44:29.789Z,53.05
2018-07-02T00:45:29.745Z,53.34
2018-07-02T00:46:29.685Z,53.44
2018-07-02T00:47:29.635Z,52.86
2018-07-02T00:48:29.589Z,52.86
2018-07-02T00:49:29.533Z,52.95
2018-07-02T00:50:29.483Z,52.48
2018-07-02T00:51:29.437Z,53.05
2018-07-02T00:52:29.382Z,53.05
2018-07-02T00:53:29.334Z,52.38
2018-07-02T00:54:29.279Z,52.76
2018-07-02T00:55:29.228Z,53.44
2018-07-02T00:56:29.177Z,55.45
2018-07-02T00:57:29.128Z,54.97
2018-07-02T00:58:29.076Z,54.21
2018-07-02T00:59:29.028Z,54.58
2018-07-02T01:00:28.978Z,54.39
2018-07-02T01:01:28.926Z,54.21
2018-07-02T01:02:28.873Z,54.39
2018-07-02T01:03:28.822Z,54.11
2018-07-02T01:04:28.771Z,54.39
2018-07-02T01:05:28.724Z,54.49
2018-07-02T01:06:28.673Z,54.49
2018-07-02T01:07:28.623Z,54.49
2018-07-02T01:08:28.569Z,54.88
2018-07-02T01:09:28.518Z,54.97
2018-07-02T01:10:28.466Z,55.64
2018-07-02T01:11:28.418Z,55.04
2018-07-02T01:12:28.371Z,54.94
2018-07-02T01:13:28.316Z,54.75
2018-07-02T01:14:28.264Z,55.04
2018-07-02T01:15:28.214Z,54.75
2018-07-02T01:16:28.163Z,55.04
2018-07-02T01:17:28.113Z,55.42
2018-07-02T01:18:28.060Z,56.29
2018-07-02T01:19:28.012Z,56.76
2018-07-02T01:20:27.960Z,56.38
2018-07-02T01:21:27.908Z,56.57
2018-07-02T01:22:27.859Z,56.29
2018-07-02T01:23:27.806Z,56.00
2018-07-02T01:24:27.757Z,55.80
2018-07-02T01:25:27.707Z,55.80
2018-07-02T01:26:27.653Z,56.09
2018-07-02T01:27:27.604Z,56.00
2018-07-02T01:28:27.552Z,55.42
2018-07-02T01:29:27.501Z,56.48
2018-07-02T01:30:27.449Z,56.35
2018-07-02T01:31:27.400Z,56.64
2018-07-02T01:32:27.349Z,56.38
2018-07-02T01:33:27.299Z,56.57
2018-07-02T01:34:27.246Z,56.74
2018-07-02T01:35:27.198Z,57.21
2018-07-02T01:36:27.144Z,56.93
2018-07-02T01:37:27.094Z,56.64
2018-07-02T01:38:27.041Z,56.54
2018-07-02T01:39:26.991Z,57.03
2018-07-02T01:40:26.940Z,56.93
2018-07-02T01:41:26.888Z,56.64
2018-07-02T01:42:26.836Z,57.03
2018-07-02T01:43:26.786Z,57.31
2018-07-02T01:44:26.734Z,57.03
2018-07-02T01:45:26.687Z,57.21
2018-07-02T01:46:26.632Z,57.41
2018-07-02T01:47:26.581Z,57.03
2018-07-02T01:48:26.531Z,57.31
2018-07-02T01:49:26.485Z,57.98
2018-07-02T01:50:26.426Z,57.03
2018-07-02T01:51:26.377Z,56.74
2018-07-02T01:52:26.326Z,57.31
2018-07-02T01:53:26.275Z,57.03
2018-07-02T01:54:26.225Z,56.93
2018-07-02T01:55:26.174Z,57.31
2018-07-02T01:56:26.121Z,57.41
2018-07-02T01:57:26.071Z,56.93
2018-07-02T01:58:26.017Z,57.03
2018-07-02T01:59:25.965Z,56.93
2018-07-02T02:00:25.916Z,58.08
2018-07-02T02:01:25.865Z,57.03
2018-07-02T02:02:25.811Z,57.21
2018-07-02T02:03:25.763Z,57.21
2018-07-02T02:04:25.709Z,57.12
2018-07-02T02:05:25.658Z,56.93
2018-07-02T02:06:25.606Z,57.31
2018-07-02T02:07:25.556Z,57.41
2018-07-02T02:08:25.504Z,57.21
2018-07-02T02:09:25.452Z,57.50
2018-07-02T02:10:25.405Z,57.89
2018-07-02T02:11:25.349Z,58.27
2018-07-02T02:12:25.303Z,58.62
2018-07-02T02:13:25.248Z,59.01
2018-07-02T02:14:25.198Z,59.23
2018-07-02T02:15:25.145Z,59.30
2018-07-02T02:16:25.093Z,59.48
2018-07-02T02:17:25.042Z,60.35
2018-07-02T02:18:24.992Z,60.35
2018-07-02T02:19:24.938Z,60.35
2018-07-02T02:20:24.888Z,60.89
2018-07-02T02:21:24.841Z,60.80
2018-07-02T02:22:24.785Z,61.50
2018-07-02T02:23:24.732Z,61.66
2018-07-02T02:24:24.682Z,61.37
2018-07-02T02:25:24.634Z,61.18
2018-07-02T02:26:24.578Z,61.18
2018-07-02T02:27:24.527Z,61.18
2018-07-02T02:28:24.477Z,60.25
2018-07-02T02:29:24.425Z,60.22
2018-07-02T02:30:24.374Z,60.83
2018-07-02T02:31:24.322Z,60.64
2018-07-02T02:32:24.270Z,61.02
2018-07-02T02:33:24.249Z,61.08
2018-07-02T02:34:24.170Z,61.31
2018-07-02T02:35:24.115Z,61.47
2018-07-02T02:36:24.065Z,60.89
2018-07-02T02:37:24.012Z,61.57
2018-07-02T02:38:23.969Z,61.94
2018-07-02T02:39:23.908Z,61.57
2018-07-02T02:40:23.857Z,62.43
2018-07-02T02:41:23.804Z,62.30
2018-07-02T02:42:23.756Z,62.52
2018-07-02T02:43:23.701Z,63.16
2018-07-02T02:44:23.649Z,63.06
2018-07-02T02:45:23.599Z,63.35
2018-07-02T02:46:23.546Z,63.16
2018-07-02T02:47:23.497Z,63.26
2018-07-02T02:48:23.443Z,63.83
2018-07-02T02:49:23.391Z,63.73
2018-07-02T02:50:23.337Z,63.45
2018-07-02T02:51:23.286Z,63.54
2018-07-02T02:52:23.234Z,64.40
2018-07-02T02:53:23.183Z,64.31
2018-07-02T02:54:23.131Z,64.50
2018-07-02T02:55:23.079Z,64.12
2018-07-02T02:56:23.029Z,64.31
2018-07-02T02:57:22.975Z,65.08
2018-07-02T02:58:22.922Z,65.84
2018-07-02T02:59:22.869Z,66.09
2018-07-02T03:00:22.818Z,66.19
2018-07-02T03:01:22.769Z,66.00
2018-07-02T03:02:22.713Z,65.71
2018-07-02T03:03:22.662Z,65.52
2018-07-02T03:04:22.610Z,64.95
2018-07-02T03:05:22.558Z,64.85
2018-07-02T03:06:22.507Z,65.04
2018-07-02T03:07:22.453Z,65.71
2018-07-02T03:08:22.401Z,65.42
2018-07-02T03:09:22.348Z,65.52
2018-07-02T03:10:22.296Z,65.52
2018-07-02T03:11:22.244Z,64.85
2018-07-02T03:12:22.196Z,65.33
2018-07-02T03:13:22.145Z,65.33
2018-07-02T03:14:22.087Z,64.95
2018-07-02T03:15:22.035Z,65.14
2018-07-02T03:16:21.980Z,64.85
2018-07-02T03:17:21.930Z,64.28
2018-07-02T03:18:21.877Z,64.40
2018-07-02T03:19:21.826Z,64.66
2018-07-02T03:20:21.815Z,64.79
2018-07-02T03:21:21.721Z,65.14
2018-07-02T03:22:21.667Z,64.85
2018-07-02T03:23:21.619Z,65.04
2018-07-02T03:24:21.564Z,65.71
2018-07-02T03:25:21.513Z,65.81
2018-07-02T03:26:21.511Z,67.05
2018-07-02T03:27:21.405Z,66.19
2018-07-02T03:28:21.354Z,65.71
2018-07-02T03:29:21.301Z,66.09
2018-07-02T03:30:21.255Z,66.67
2018-07-02T03:31:21.196Z,67.34
2018-07-02T03:32:21.145Z,67.69
2018-07-02T03:33:21.091Z,66.44
2018-07-02T03:34:21.044Z,68.16
2018-07-02T03:35:20.988Z,67.69
2018-07-02T03:36:20.934Z,67.21
2018-07-02T03:37:20.882Z,67.97
2018-07-02T03:38:20.828Z,67.78
2018-07-02T03:39:20.777Z,69.21
2018-07-02T03:40:20.723Z,69.12
2018-07-02T03:41:20.672Z,68.74
2018-07-02T03:42:20.618Z,68.93
2018-07-02T03:43:20.567Z,68.35
2018-07-02T03:44:20.513Z,69.50
2018-07-02T03:45:20.463Z,70.84
2018-07-02T03:46:20.411Z,70.07
2018-07-02T03:47:20.357Z,70.17
2018-07-02T03:48:20.304Z,70.17
2018-07-02T03:49:20.253Z,70.33
2018-07-02T03:50:20.206Z,70.65
2018-07-02T03:51:20.148Z,71.67
2018-07-02T03:52:20.094Z,71.38
2018-07-02T03:53:20.041Z,71.67
2018-07-02T03:54:19.989Z,71.86
2018-07-02T03:55:19.938Z,72.62
2018-07-02T03:56:19.885Z,72.33
2018-07-02T03:57:19.837Z,72.33
2018-07-02T03:58:19.778Z,72.05
2018-07-02T03:59:19.728Z,72.14
2018-07-02T04:00:19.674Z,72.33
2018-07-02T04:01:19.723Z,71.95
2018-07-02T04:02:19.570Z,72.43
2018-07-02T04:03:19.523Z,72.24
2018-07-02T04:04:19.462Z,72.14
2018-07-02T04:05:19.412Z,73.00
2018-07-02T04:06:19.357Z,73.19
2018-07-02T04:07:19.304Z,74.34
2018-07-02T04:08:19.253Z,73.96
2018-07-02T04:09:19.204Z,72.05
2018-07-02T04:10:19.146Z,73.00
2018-07-02T04:11:19.093Z,73.48
2018-07-02T04:12:19.041Z,75.30
2018-07-02T04:13:18.992Z,75.20
2018-07-02T04:14:18.935Z,75.49
2018-07-02T04:15:18.886Z,73.58
2018-07-02T04:16:18.830Z,72.43
2018-07-02T04:17:18.778Z,70.33
2018-07-02T04:18:18.725Z,71.28
2018-07-02T04:19:18.672Z,71.47
2018-07-02T04:20:18.620Z,71.47
2018-07-02T04:21:18.571Z,71.28
2018-07-02T04:22:18.514Z,71.80
2018-07-02T04:23:18.461Z,71.70
2018-07-02T04:24:18.410Z,70.56
2018-07-02T04:25:18.357Z,70.84
2018-07-02T04:26:18.303Z,71.22
2018-07-02T04:27:18.250Z,70.56
2018-07-02T04:28:18.196Z,69.50
2018-07-02T04:29:18.143Z,69.50
2018-07-02T04:30:18.091Z,70.65
2018-07-02T04:31:18.039Z,71.55
2018-07-02T04:32:17.987Z,70.94
2018-07-02T04:33:17.940Z,71.42
2018-07-02T04:34:17.914Z,71.61
2018-07-02T04:35:17.837Z,72.02
2018-07-02T04:36:17.778Z,71.07
2018-07-02T04:37:17.724Z,70.36
2018-07-02T04:38:17.671Z,70.59
2018-07-02T04:39:17.620Z,70.01
2018-07-02T04:40:17.566Z,70.40
2018-07-02T04:41:17.515Z,70.59
2018-07-02T04:42:17.461Z,70.01
2018-07-02T04:43:17.407Z,69.64
2018-07-02T04:44:17.356Z,69.54
2018-07-02T04:45:17.329Z,69.44
2018-07-02T04:46:17.295Z,69.54
2018-07-02T04:47:17.205Z,70.59
2018-07-02T04:48:17.146Z,69.54
2018-07-02T04:49:17.095Z,69.15
2018-07-02T04:50:17.039Z,69.15
2018-07-02T04:51:16.988Z,69.15
2018-07-02T04:52:16.935Z,68.10
2018-07-02T04:53:16.881Z,69.64
2018-07-02T04:54:16.829Z,69.00
2018-07-02T04:55:16.777Z,68.71
2018-07-02T04:56:16.723Z,68.52
2018-07-02T04:57:16.674Z,67.94
2018-07-02T04:58:16.618Z,67.94
2018-07-02T04:59:16.567Z,68.62
2018-07-02T05:00:16.514Z,68.52
2018-07-02T05:01:16.492Z,68.80
2018-07-02T05:02:16.409Z,68.04
2018-07-02T05:03:16.358Z,67.47
2018-07-02T05:04:16.307Z,67.08
2018-07-02T05:05:16.256Z,67.94
2018-07-02T05:06:16.205Z,68.04
2018-07-02T05:07:16.149Z,67.94
2018-07-02T05:08:16.097Z,68.17
2018-07-02T05:09:16.245Z,67.08
2018-07-02T05:10:15.990Z,66.83
2018-07-02T05:11:15.939Z,65.97
2018-07-02T05:12:15.888Z,65.39
2018-07-02T05:13:15.836Z,65.88
2018-07-02T05:14:15.780Z,65.68
2018-07-02T05:15:15.733Z,65.88
2018-07-02T05:16:15.683Z,66.16
2018-07-02T05:17:15.625Z,66.35
2018-07-02T05:18:15.575Z,67.88
2018-07-02T05:19:15.521Z,67.41
2018-07-02T05:20:15.469Z,67.02
2018-07-02T05:21:15.417Z,66.25
2018-07-02T05:22:15.367Z,65.81
2018-07-02T05:23:15.312Z,66.06
2018-07-02T05:24:15.261Z,66.86
2018-07-02T05:25:15.208Z,66.58
2018-07-02T05:26:15.156Z,66.86
2018-07-02T05:27:15.104Z,66.58
2018-07-02T05:28:15.053Z,66.48
2018-07-02T05:29:15.001Z,66.48
2018-07-02T05:30:14.947Z,66.29
2018-07-02T05:31:14.896Z,66.00
2018-07-02T05:32:14.845Z,66.38
2018-07-02T05:33:14.799Z,66.00
2018-07-02T05:34:14.741Z,66.00
2018-07-02T05:35:14.690Z,65.91
2018-07-02T05:36:14.638Z,64.66
2018-07-02T05:37:14.587Z,64.76
2018-07-02T05:38:14.537Z,65.05
2018-07-02T05:39:14.485Z,63.64
2018-07-02T05:40:14.430Z,63.51
2018-07-02T05:41:14.379Z,64.22
2018-07-02T05:42:14.329Z,63.64
2018-07-02T05:43:14.276Z,64.22
2018-07-02T05:44:14.225Z,63.92
2018-07-02T05:45:14.173Z,64.69
2018-07-02T05:46:14.121Z,62.59
2018-07-02T05:47:14.069Z,60.57
2018-07-02T05:48:14.019Z,59.80
2018-07-02T05:49:13.968Z,59.71
2018-07-02T05:50:13.916Z,59.61
2018-07-02T05:51:13.863Z,60.47
2018-07-02T05:52:13.818Z,60.99
2018-07-02T05:53:13.762Z,59.45
2018-07-02T05:54:13.713Z,59.26
2018-07-02T05:55:13.659Z,59.16
2018-07-02T05:56:13.608Z,58.30
2018-07-02T05:57:13.559Z,59.16
2018-07-02T05:58:13.505Z,59.16
2018-07-02T05:59:13.454Z,59.74
2018-07-02T06:00:13.457Z,60.63
2018-07-02T06:01:13.358Z,59.77
2018-07-02T06:02:13.300Z,58.52
2018-07-02T06:03:13.249Z,58.14
2018-07-02T06:04:13.199Z,57.46
2018-07-02T06:05:13.149Z,57.18
2018-07-02T06:06:13.096Z,58.04
2018-07-02T06:07:13.049Z,58.62
2018-07-02T06:08:12.996Z,58.62
2018-07-02T06:09:12.942Z,58.91
2018-07-02T06:10:12.894Z,57.28
2018-07-02T06:11:12.847Z,57.28
2018-07-02T06:12:12.790Z,57.56
2018-07-02T06:13:12.790Z,57.11
2018-07-02T06:14:12.689Z,57.11
2018-07-02T06:15:12.638Z,56.73
2018-07-02T06:16:12.589Z,57.01
2018-07-02T06:17:12.540Z,57.40
2018-07-02T06:18:12.486Z,56.53
2018-07-02T06:19:12.435Z,56.56
2018-07-02T06:20:12.385Z,56.37
2018-07-02T06:21:12.339Z,55.79
2018-07-02T06:22:12.284Z,55.51
2018-07-02T06:23:12.233Z,56.08
2018-07-02T06:24:12.181Z,56.27
2018-07-02T06:25:12.132Z,55.41
2018-07-02T06:26:12.080Z,55.69
2018-07-02T06:27:12.035Z,55.44
2018-07-02T06:28:11.981Z,55.60
2018-07-02T06:29:11.932Z,55.53
2018-07-02T06:30:11.881Z,55.15
2018-07-02T06:31:11.829Z,55.05
2018-07-02T06:32:11.782Z,55.44
2018-07-02T06:33:11.727Z,55.63
2018-07-02T06:34:11.676Z,56.59
2018-07-02T06:35:11.626Z,55.24
2018-07-02T06:36:11.583Z,55.53
2018-07-02T06:37:11.529Z,55.73
2018-07-02T06:38:11.476Z,55.44
2018-07-02T06:39:11.425Z,55.05
2018-07-02T06:40:11.380Z,56.23
2018-07-02T06:41:11.325Z,55.08
2018-07-02T06:42:11.281Z,54.60
2018-07-02T06:43:11.229Z,54.79
2018-07-02T06:44:11.180Z,55.37
2018-07-02T06:45:11.129Z,54.79
2018-07-02T06:46:11.080Z,55.56
2018-07-02T06:47:11.027Z,54.41
2018-07-02T06:48:10.976Z,54.31
2018-07-02T06:49:10.932Z,55.18
2018-07-02T06:50:10.878Z,54.41
2018-07-02T06:51:10.827Z,54.79
2018-07-02T06:52:10.776Z,54.22
2018-07-02T06:53:10.728Z,53.92
2018-07-02T06:54:10.679Z,54.34
2018-07-02T06:55:10.628Z,53.86
2018-07-02T06:56:10.580Z,53.57
2018-07-02T06:57:10.528Z,53.19
2018-07-02T06:58:10.480Z,53.57
2018-07-02T06:59:10.435Z,53.09
2018-07-02T07:00:10.379Z,52.89
2018-07-02T07:01:10.333Z,53.57
2018-07-02T07:02:10.281Z,53.28
2018-07-02T07:03:10.231Z,52.99
2018-07-02T07:04:10.184Z,52.70
2018-07-02T07:05:10.131Z,52.83
2018-07-02T07:06:10.085Z,53.11
2018-07-02T07:07:10.033Z,52.73
2018-07-02T07:08:09.983Z,52.54
2018-07-02T07:09:09.935Z,51.96
2018-07-02T07:10:09.884Z,51.96
2018-07-02T07:11:09.834Z,51.86
2018-07-02T07:12:09.788Z,51.48
2018-07-02T07:13:09.737Z,52.06
2018-07-02T07:14:09.687Z,52.37
2018-07-02T07:15:09.642Z,51.89
2018-07-02T07:16:09.589Z,51.70
2018-07-02T07:17:09.540Z,52.18
2018-07-02T07:18:09.493Z,51.41
2018-07-02T07:19:09.441Z,51.31
2018-07-02T07:20:09.396Z,51.50
2018-07-02T07:21:09.345Z,51.70
2018-07-02T07:22:09.296Z,50.63
2018-07-02T07:23:09.247Z,51.60
2018-07-02T07:24:09.197Z,51.62
2018-07-02T07:25:09.152Z,51.43
2018-07-02T07:26:09.099Z,51.72
2018-07-02T07:27:09.050Z,51.62
2018-07-02T07:28:09.001Z,51.43
2018-07-02T07:29:08.955Z,49.70
2018-07-02T07:30:08.904Z,49.79
2018-07-02T07:31:08.901Z,50.57
2018-07-02T07:32:08.808Z,51.43
2018-07-02T07:33:08.759Z,51.43
2018-07-02T07:34:08.711Z,50.18
2018-07-02T07:35:08.661Z,50.30
2018-07-02T07:36:08.613Z,49.63
2018-07-02T07:37:08.571Z,49.63
2018-07-02T07:38:08.515Z,49.73
2018-07-02T07:39:08.468Z,49.84
2018-07-02T07:40:08.419Z,49.55
2018-07-02T07:41:08.376Z,48.28
2018-07-02T07:42:08.322Z,48.95
2018-07-02T07:43:08.275Z,48.95
2018-07-02T07:44:08.228Z,48.57
2018-07-02T07:45:08.179Z,49.34
2018-07-02T07:46:08.129Z,48.69
2018-07-02T07:47:08.082Z,48.40
2018-07-02T07:48:08.033Z,48.21
2018-07-02T07:49:07.984Z,47.92
2018-07-02T07:50:07.935Z,47.53
2018-07-02T07:51:07.898Z,47.63
2018-07-02T07:52:07.840Z,47.27
2018-07-02T07:53:07.855Z,46.78
2018-07-02T07:54:07.745Z,46.59
2018-07-02T07:55:07.696Z,45.43
2018-07-02T07:56:07.646Z,45.72
2018-07-02T07:57:07.600Z,45.75
2018-07-02T07:58:07.550Z,46.11
2018-07-02T07:59:07.502Z,46.78
2018-07-02T08:00:07.455Z,46.81
2018-07-02T08:01:07.408Z,46.51
2018-07-02T08:02:07.362Z,45.07
2018-07-02T08:03:07.312Z,45.36
2018-07-02T08:04:07.289Z,44.97
2018-07-02T08:05:07.221Z,46.03
2018-07-02T08:06:07.168Z,45.94
2018-07-02T08:07:07.122Z,45.36
2018-07-02T08:08:07.073Z,44.60
2018-07-02T08:09:07.026Z,44.42
2018-07-02T08:10:06.980Z,44.03
2018-07-02T08:11:06.930Z,43.45
2018-07-02T08:12:06.882Z,43.74
2018-07-02T08:13:06.839Z,43.64
2018-07-02T08:14:06.789Z,43.74
2018-07-02T08:15:06.739Z,44.12
2018-07-02T08:16:06.694Z,43.64
2018-07-02T08:17:06.646Z,43.45
2018-07-02T08:18:06.598Z,43.64
2018-07-02T08:19:06.578Z,43.64
2018-07-02T08:20:06.503Z,44.22
2018-07-02T08:21:06.455Z,43.35
2018-07-02T08:22:06.406Z,44.15
2018-07-02T08:23:06.364Z,44.24
2018-07-02T08:24:06.313Z,43.49
2018-07-02T08:25:06.267Z,43.18
2018-07-02T08:26:06.220Z,42.99
2018-07-02T08:27:06.172Z,43.18
2018-07-02T08:28:06.132Z,42.79
2018-07-02T08:29:06.079Z,42.41
2018-07-02T08:30:06.031Z,42.14
2018-07-02T08:31:05.984Z,41.56
2018-07-02T08:32:05.938Z,41.85
2018-07-02T08:33:05.896Z,41.94
2018-07-02T08:34:05.842Z,42.55
2018-07-02T08:35:05.798Z,42.25
2018-07-02T08:36:05.749Z,41.75
2018-07-02T08:37:05.708Z,41.85
2018-07-02T08:38:05.656Z,41.36
2018-07-02T08:39:05.611Z,41.19
2018-07-02T08:40:05.565Z,41.09
2018-07-02T08:41:05.517Z,41.77
2018-07-02T08:42:05.472Z,41.50
2018-07-02T08:43:05.423Z,40.73
2018-07-02T08:44:05.377Z,40.25
2018-07-02T08:45:05.336Z,41.21
2018-07-02T08:46:05.285Z,40.81
2018-07-02T08:47:05.241Z,40.81
2018-07-02T08:48:05.193Z,41.67
2018-07-02T08:49:05.149Z,41.39
2018-07-02T08:50:05.099Z,41.87
2018-07-02T08:51:05.056Z,41.29
2018-07-02T08:52:05.011Z,41.41
2018-07-02T08:53:04.964Z,40.90
2018-07-02T08:54:04.914Z,41.29
2018-07-02T08:55:04.869Z,40.32
2018-07-02T08:56:04.824Z,39.84
2018-07-02T08:57:04.776Z,40.32
2018-07-02T08:58:04.729Z,39.86
2018-07-02T08:59:04.684Z,40.03
2018-07-02T09:00:04.640Z,40.83
2018-07-02T09:01:04.593Z,40.73
2018-07-02T09:02:04.547Z,40.05
2018-07-02T09:03:04.500Z,40.84
2018-07-02T09:04:04.454Z,40.07
2018-07-02T09:05:04.409Z,40.75
2018-07-02T09:06:04.362Z,38.71
2018-07-02T09:07:04.317Z,38.53
2018-07-02T09:08:04.270Z,38.81
2018-07-02T09:09:04.226Z,39.78
2018-07-02T09:10:04.179Z,39.11
2018-07-02T09:11:04.133Z,38.53
2018-07-02T09:12:04.320Z,38.53
2018-07-02T09:13:04.086Z,38.91
2018-07-02T09:14:04.002Z,38.71
2018-07-02T09:15:03.954Z,39.11
2018-07-02T09:16:04.015Z,39.39
2018-07-02T09:17:03.861Z,39.69
2018-07-02T09:18:03.814Z,40.36
2018-07-02T09:19:03.772Z,39.88
2018-07-02T09:20:03.723Z,38.81
2018-07-02T09:21:03.679Z,38.91
2018-07-02T09:22:03.633Z,39.49
2018-07-02T09:23:03.587Z,38.91
2018-07-02T09:24:03.543Z,38.53
2018-07-02T09:25:03.499Z,38.81
2018-07-02T09:26:03.454Z,39.20
2018-07-02T09:27:03.404Z,39.69
2018-07-02T09:28:03.360Z,38.71
2018-07-02T09:29:03.323Z,39.39
2018-07-02T09:30:03.273Z,39.29
2018-07-02T09:31:03.223Z,38.53
2018-07-02T09:32:03.178Z,38.64
2018-07-02T09:33:03.132Z,38.54
2018-07-02T09:34:03.086Z,38.93
2018-07-02T09:35:03.041Z,40.11
2018-07-02T09:36:02.996Z,38.76
2018-07-02T09:37:02.953Z,37.88
2018-07-02T09:38:03.047Z,37.88
2018-07-02T09:39:02.863Z,36.90
2018-07-02T09:40:02.816Z,38.06
2018-07-02T09:41:02.771Z,38.73
2018-07-02T09:42:02.725Z,39.61
2018-07-02T09:43:02.683Z,39.51
2018-07-02T09:44:02.633Z,38.73
2018-07-02T09:45:02.593Z,38.54
2018-07-02T09:46:02.543Z,38.35
2018-07-02T09:47:02.499Z,38.06
2018-07-02T09:48:02.454Z,38.37
2018-07-02T09:49:02.409Z,38.15
2018-07-02T09:50:02.371Z,37.28
2018-07-02T09:51:02.319Z,37.28
2018-07-02T09:52:02.276Z,36.41
2018-07-02T09:53:02.229Z,35.83
2018-07-02T09:54:02.185Z,36.12
2018-07-02T09:55:02.140Z,35.64
2018-07-02T09:56:02.094Z,36.12
2018-07-02T09:57:02.048Z,35.73
2018-07-02T09:58:02.004Z,36.14
2018-07-02T09:59:01.957Z,36.33
2018-07-02T10:00:01.912Z,36.06
2018-07-02T10:01:01.868Z,36.16
2018-07-02T10:02:01.822Z,34.70
2018-07-02T10:03:01.777Z,36.25
2018-07-02T10:04:01.740Z,35.48
2018-07-02T10:05:01.693Z,35.77
2018-07-02T10:06:01.641Z,35.77
2018-07-02T10:07:01.599Z,35.77
2018-07-02T10:08:01.556Z,36.27
2018-07-02T10:09:01.511Z,35.57
2018-07-02T10:10:01.464Z,34.89
2018-07-02T10:11:01.419Z,35.59
2018-07-02T10:12:01.381Z,35.30
2018-07-02T10:13:01.332Z,34.81
2018-07-02T10:14:01.285Z,34.91
2018-07-02T10:15:01.243Z,34.72
2018-07-02T10:16:01.199Z,34.81
2018-07-02T10:17:01.156Z,34.54
2018-07-02T10:18:01.109Z,34.72
2018-07-02T10:19:01.063Z,34.25
2018-07-02T10:20:01.022Z,34.64
2018-07-02T10:21:00.974Z,34.16
2018-07-02T10:22:00.931Z,34.33
2018-07-02T10:23:00.887Z,33.94
2018-07-02T10:24:00.890Z,32.68
2018-07-02T10:25:00.798Z,33.56
2018-07-02T10:26:00.813Z,34.33
2018-07-02T10:27:00.710Z,34.04
2018-07-02T10:28:00.668Z,34.72
2018-07-02T10:29:00.630Z,34.25
2018-07-02T10:30:00.579Z,33.96
2018-07-02T10:31:00.547Z,34.35
2018-07-02T10:32:00.495Z,34.54
2018-07-02T10:33:00.445Z,33.09
2018-07-02T10:34:00.402Z,36.29
2018-07-02T10:35:00.363Z,34.08
2018-07-02T10:36:00.317Z,33.29
2018-07-02T10:37:00.272Z,33.11
2018-07-02T10:38:00.229Z,34.87
2018-07-02T10:39:00.234Z,32.82
2018-07-02T10:40:00.225Z,31.74
2018-07-02T10:41:00.096Z,33.69
2018-07-02T10:42:00.052Z,34.87
2018-07-02T10:43:00.008Z,33.02
2018-07-02T10:43:59.964Z,32.54
2018-07-02T10:44:59.921Z,34.67
2018-07-02T10:45:59.877Z,34.95
2018-07-02T10:46:59.878Z,35.51
2018-07-02T10:47:59.791Z,36.48
2018-07-02T10:48:59.745Z,34.44
2018-07-02T10:49:59.702Z,33.98
2018-07-02T10:50:59.660Z,34.85
2018-07-02T10:51:59.617Z,34.58
2018-07-02T10:52:59.573Z,34.48
2018-07-02T10:53:59.529Z,34.95
2018-07-02T10:54:59.486Z,34.72
2018-07-02T10:55:59.444Z,37.15
2018-07-02T10:56:59.399Z,35.88
2018-07-02T10:57:59.355Z,36.25
2018-07-02T10:58:59.312Z,36.16
2018-07-02T10:59:59.268Z,35.96
2018-07-02T11:00:59.223Z,36.06
2018-07-02T11:01:59.179Z,35.30
2018-07-02T11:02:59.139Z,35.71
2018-07-02T11:03:59.093Z,35.90
2018-07-02T11:04:59.054Z,34.83
2018-07-02T11:05:59.004Z,34.06
2018-07-02T11:06:58.965Z,34.74
2018-07-02T11:07:58.916Z,34.64
2018-07-02T11:08:58.872Z,34.64
2018-07-02T11:09:58.828Z,34.83
2018-07-02T11:10:58.787Z,34.35
2018-07-02T11:11:58.742Z,34.16
2018-07-02T11:12:58.698Z,34.06
2018-07-02T11:13:58.651Z,34.64
2018-07-02T11:14:58.611Z,34.75
2018-07-02T11:15:58.566Z,34.85
2018-07-02T11:16:58.523Z,35.03
2018-07-02T11:17:58.478Z,36.00
2018-07-02T11:18:58.437Z,35.22
2018-07-02T11:19:58.390Z,34.95
2018-07-02T11:20:58.349Z,34.87
2018-07-02T11:21:58.303Z,33.90
2018-07-02T11:22:58.259Z,33.80
2018-07-02T11:23:58.215Z,33.80
2018-07-02T11:24:58.172Z,32.92
2018-07-02T11:25:58.128Z,33.99
2018-07-02T11:26:58.084Z,34.08
2018-07-02T11:27:58.040Z,33.39
2018-07-02T11:28:57.997Z,33.20
2018-07-02T11:29:57.951Z,33.20
2018-07-02T11:30:57.908Z,33.49
2018-07-02T11:31:57.868Z,34.77
2018-07-02T11:32:57.853Z,34.09
2018-07-02T11:33:57.783Z,32.92
2018-07-02T11:34:57.735Z,32.45
2018-07-02T11:35:57.693Z,33.04
2018-07-02T11:36:57.649Z,33.25
2018-07-02T11:37:57.605Z,32.47
2018-07-02T11:38:57.562Z,31.40
2018-07-02T11:39:57.521Z,31.58
2018-07-02T11:40:57.481Z,32.17
2018-07-02T11:41:57.432Z,32.75
2018-07-02T11:42:57.390Z,33.81
2018-07-02T11:43:57.345Z,32.65
2018-07-02T11:44:57.304Z,33.06
2018-07-02T11:45:57.261Z,31.79
2018-07-02T11:46:57.226Z,32.57
2018-07-02T11:47:57.175Z,31.40
2018-07-02T11:48:57.131Z,31.21
2018-07-02T11:49:57.088Z,29.24
2018-07-02T11:50:57.044Z,29.91
2018-07-02T11:51:57.003Z,30.77
2018-07-02T11:52:56.961Z,30.97
2018-07-02T11:53:56.920Z,29.24
2018-07-02T11:54:56.877Z,30.30
2018-07-02T11:55:56.830Z,29.12
2018-07-02T11:56:56.789Z,28.54
2018-07-02T11:57:56.746Z,29.02
2018-07-02T11:58:56.700Z,30.88
2018-07-02T11:59:56.658Z,31.18
2018-07-02T12:00:56.618Z,31.77
2018-07-02T12:01:56.617Z,33.62
2018-07-02T12:02:56.528Z,31.58
2018-07-02T12:03:56.490Z,30.04
2018-07-02T12:04:56.444Z,30.62
2018-07-02T12:05:56.442Z,31.77
2018-07-02T12:06:56.358Z,30.72
2018-07-02T12:07:56.315Z,31.58
2018-07-02T12:08:56.271Z,29.74
2018-07-02T12:09:56.260Z,28.76
2018-07-02T12:10:56.185Z,32.28
2018-07-02T12:11:56.142Z,31.40
2018-07-02T12:12:56.101Z,30.62
2018-07-02T12:13:56.057Z,30.02
2018-07-02T12:14:56.013Z,30.02
2018-07-02T12:15:55.971Z,30.61
2018-07-02T12:16:55.929Z,30.71
2018-07-02T12:17:55.884Z,31.10
2018-07-02T12:18:55.843Z,31.00
2018-07-02T12:19:55.800Z,30.24
2018-07-02T12:20:55.754Z,31.88
2018-07-02T12:21:55.712Z,31.32
2018-07-02T12:22:55.672Z,28.89
2018-07-02T12:23:55.625Z,29.36
2018-07-02T12:24:55.585Z,30.33
2018-07-02T12:25:55.543Z,32.97
2018-07-02T12:26:55.500Z,32.59
2018-07-02T12:27:55.463Z,31.61
2018-07-02T12:28:55.417Z,31.43
2018-07-02T12:29:55.370Z,29.39
2018-07-02T12:30:55.328Z,29.10
2018-07-02T12:31:55.286Z,27.54
2018-07-02T12:32:55.242Z,29.19
2018-07-02T12:33:55.200Z,29.19
2018-07-02T12:34:55.157Z,28.20
2018-07-02T12:35:55.115Z,28.11
2018-07-02T12:36:55.072Z,30.35
2018-07-02T12:37:55.032Z,28.89
2018-07-02T12:38:54.987Z,30.17
2018-07-02T12:39:54.945Z,28.79
2018-07-02T12:40:54.904Z,29.57
2018-07-02T12:41:54.864Z,29.08
2018-07-02T12:42:54.819Z,29.06
2018-07-02T12:43:54.777Z,29.26
2018-07-02T12:44:54.735Z,28.96
2018-07-02T12:45:54.690Z,29.85
2018-07-02T12:46:54.651Z,29.74
2018-07-02T12:47:54.606Z,30.80
2018-07-02T12:48:54.563Z,29.33
2018-07-02T12:49:54.521Z,31.48
2018-07-02T12:50:54.478Z,30.90
2018-07-02T12:51:54.435Z,30.24